Time;durP1;ratioP1;P1;durP2;ratioP2;P2;SDS_P1;SDS_P2;PMS_P1;PMS_P2;Temp;Humidity;BMP_temperature;BMP_pressure;BME280_temperature;BME280_humidity;BME280_pressure;Samples;Min_cycle;Max_cycle;Signal;HPM_P1;HPM_P2
2023/09/13 00:00:21;;;;;;;0.38;0.38;;;;;;;;;;5065702;28;20550;-72
2023/09/13 00:02:48;;;;;;;0.43;0.43;;;;;;;;;;5060242;28;20564;-73
2023/09/13 00:05:16;;;;;;;0.95;0.95;;;;;;;;;;5062682;28;20044;-73
2023/09/13 00:07:44;;;;;;;0.40;0.40;;;;;;;;;;5061303;28;20079;-72
2023/09/13 00:10:11;;;;;;;0.93;0.85;;;;;;;;;;5061179;28;20048;-72
2023/09/13 00:12:39;;;;;;;1.13;0.77;;;;;;;;;;5058942;28;20048;-73
2023/09/13 00:15:06;;;;;;;0.30;0.30;;;;;;;;;;5064682;28;20048;-72
2023/09/13 00:17:34;;;;;;;0.20;0.08;;;;;;;;;;5053082;28;20053;-71
2023/09/13 00:20:03;;;;;;;0.00;0.00;;;;;;;;;;5060209;28;20053;-70
2023/09/13 00:22:31;;;;;;;0.50;0.50;;;;;;;;;;5059258;28;20040;-71
2023/09/13 00:24:58;;;;;;;0.15;0.15;;;;;;;;;;5058183;28;20049;-71
2023/09/13 00:27:26;;;;;;;0.45;0.40;;;;;;;;;;5053578;28;20510;-71
2023/09/13 00:29:54;;;;;;;0.47;0.47;;;;;;;;;;5058574;28;20143;-70
2023/09/13 00:32:21;;;;;;;0.00;0.00;;;;;;;;;;5059098;28;20049;-72
2023/09/13 00:34:48;;;;;;;0.43;0.43;;;;;;;;;;5060194;28;20052;-71
2023/09/13 00:37:16;;;;;;;0.45;0.38;;;;;;;;;;5063269;28;20505;-72
2023/09/13 00:39:43;;;;;;;0.10;0.10;;;;;;;;;;5060894;28;20348;-72
2023/09/13 00:42:11;;;;;;;0.00;0.00;;;;;;;;;;5063539;28;20045;-72
2023/09/13 00:44:38;;;;;;;0.25;0.25;;;;;;;;;;5064825;28;20502;-72
2023/09/13 00:47:06;;;;;;;0.20;0.20;;;;;;;;;;5064506;28;20048;-72
2023/09/13 00:49:34;;;;;;;0.03;0.03;;;;;;;;;;5059453;28;20044;-72
2023/09/13 00:52:01;;;;;;;0.10;0.10;;;;;;;;;;5057931;28;20048;-71
2023/09/13 00:54:29;;;;;;;0.30;0.20;;;;;;;;;;5059114;28;20051;-72
2023/09/13 00:56:57;;;;;;;0.35;0.28;;;;;;;;;;5060770;28;20417;-72
2023/09/13 00:59:25;;;;;;;1.40;0.57;;;;;;;;;;5056126;28;20498;-71
2023/09/13 01:01:52;;;;;;;1.13;0.57;;;;;;;;;;5063002;28;20141;-71
2023/09/13 01:04:20;;;;;;;2.10;1.05;;;;;;;;;;5052383;28;20075;-70
2023/09/13 01:06:49;;;;;;;0.30;0.30;;;;;;;;;;5048539;28;20505;-71
2023/09/13 01:09:21;;;;;;;0.25;0.25;;;;;;;;;;5055188;28;20506;-72
2023/09/13 01:11:50;;;;;;;0.52;0.52;;;;;;;;;;5062294;28;20128;-71
2023/09/13 01:14:18;;;;;;;0.30;0.30;;;;;;;;;;5061346;28;20052;-71
2023/09/13 01:16:46;;;;;;;0.10;0.10;;;;;;;;;;5054796;28;20066;-72
2023/09/13 01:19:26;;;;;;;0.30;0.30;;;;;;;;;;5061142;28;20516;-72
2023/09/13 01:22:11;;;;;;;0.00;0.00;;;;;;;;;;5050932;28;20098;-71
2023/09/13 01:24:54;;;;;;;0.93;0.75;;;;;;;;;;5058255;28;20045;-71
2023/09/13 01:27:22;;;;;;;31.13;28.95;;;;;;;;;;5050380;28;20049;-71
2023/09/13 01:29:52;;;;;;;0.98;0.47;;;;;;;;;;5054344;28;20275;-70
2023/09/13 01:32:19;;;;;;;0.43;0.43;;;;;;;;;;5056001;28;20052;-70
2023/09/13 01:34:47;;;;;;;0.52;0.52;;;;;;;;;;5057503;28;20036;-71
2023/09/13 01:37:15;;;;;;;8.63;7.88;;;;;;;;;;5056069;28;20473;-72
2023/09/13 01:39:42;;;;;;;0.00;0.00;;;;;;;;;;5062777;28;20047;-72
2023/09/13 01:42:11;;;;;;;0.00;0.00;;;;;;;;;;5056833;28;20400;-70
2023/09/13 01:44:41;;;;;;;0.20;0.20;;;;;;;;;;5052086;28;20044;-72
2023/09/13 01:47:08;;;;;;;0.50;0.50;;;;;;;;;;5059449;28;20052;-71
2023/09/13 01:49:37;;;;;;;0.35;0.35;;;;;;;;;;5045484;28;20055;-70
2023/09/13 01:52:05;;;;;;;0.50;0.50;;;;;;;;;;5066348;28;20418;-69
2023/09/13 01:54:34;;;;;;;3.67;0.40;;;;;;;;;;5067102;28;20045;-72
2023/09/13 01:57:01;;;;;;;0.00;0.00;;;;;;;;;;5064123;28;20117;-72
2023/09/13 01:59:29;;;;;;;0.00;0.00;;;;;;;;;;5059444;28;20044;-70
2023/09/13 02:01:56;;;;;;;0.20;0.20;;;;;;;;;;5064723;28;20060;-72
2023/09/13 02:04:29;;;;;;;0.00;0.00;;;;;;;;;;5061011;28;20041;-72
2023/09/13 02:06:57;;;;;;;0.10;0.10;;;;;;;;;;5058276;28;20118;-71
2023/09/13 02:09:24;;;;;;;0.00;0.00;;;;;;;;;;5059462;28;20041;-72
2023/09/13 02:11:52;;;;;;;0.20;0.20;;;;;;;;;;5062926;28;20044;-71
2023/09/13 02:14:19;;;;;;;0.40;0.40;;;;;;;;;;5058889;28;20044;-71
2023/09/13 02:16:47;;;;;;;0.00;0.00;;;;;;;;;;5057565;28;20160;-72
2023/09/13 02:19:14;;;;;;;0.10;0.10;;;;;;;;;;5055167;28;20096;-71
2023/09/13 02:21:42;;;;;;;0.08;0.08;;;;;;;;;;5056592;28;20466;-71
2023/09/13 02:24:09;;;;;;;0.10;0.10;;;;;;;;;;5054733;28;20044;-70
2023/09/13 02:26:38;;;;;;;0.20;0.20;;;;;;;;;;5044638;28;20103;-71
2023/09/13 02:29:06;;;;;;;9.85;4.18;;;;;;;;;;5057801;28;20494;-73
2023/09/13 02:31:34;;;;;;;0.00;0.00;;;;;;;;;;5056180;28;20131;-73
2023/09/13 02:34:01;;;;;;;0.00;0.00;;;;;;;;;;5062150;28;20048;-71
2023/09/13 02:36:30;;;;;;;2.17;2.08;;;;;;;;;;5047101;28;20119;-73
2023/09/13 02:38:59;;;;;;;0.13;0.13;;;;;;;;;;5064021;28;20053;-71
2023/09/13 02:41:27;;;;;;;0.35;0.22;;;;;;;;;;5054514;28;20064;-72
2023/09/13 02:43:54;;;;;;;6.30;5.95;;;;;;;;;;5059325;28;20130;-73
2023/09/13 02:46:22;;;;;;;0.00;0.00;;;;;;;;;;5062197;28;20059;-72
2023/09/13 02:48:49;;;;;;;6.47;6.07;;;;;;;;;;5052987;28;20138;-71
2023/09/13 02:51:17;;;;;;;0.00;0.00;;;;;;;;;;5056781;28;20499;-73
2023/09/13 02:53:44;;;;;;;0.00;0.00;;;;;;;;;;5058302;28;20445;-73
2023/09/13 02:56:12;;;;;;;0.00;0.00;;;;;;;;;;5059970;28;20048;-72
2023/09/13 02:58:41;;;;;;;0.15;0.15;;;;;;;;;;5058628;28;20060;-72
2023/09/13 03:01:10;;;;;;;0.30;0.30;;;;;;;;;;5058238;28;20048;-73
2023/09/13 03:03:40;;;;;;;1.13;1.08;;;;;;;;;;5055577;28;20136;-73
2023/09/13 03:06:13;;;;;;;0.05;0.05;;;;;;;;;;5063583;28;20048;-73
2023/09/13 03:08:41;;;;;;;1.33;1.23;;;;;;;;;;5062169;28;20041;-72
2023/09/13 03:11:16;;;;;;;5.05;4.70;;;;;;;;;;5056261;28;20503;-71
2023/09/13 03:13:44;;;;;;;2.50;1.35;;;;;;;;;;5057335;28;20044;-72
2023/09/13 03:16:16;;;;;;;4.72;4.43;;;;;;;;;;5049676;28;20423;-72
2023/09/13 03:18:45;;;;;;;1.30;1.20;;;;;;;;;;5060452;28;20040;-71
2023/09/13 03:21:14;;;;;;;0.40;0.40;;;;;;;;;;5058848;28;20056;-72
2023/09/13 03:23:44;;;;;;;10.60;9.88;;;;;;;;;;5054887;28;20062;-71
2023/09/13 03:26:16;;;;;;;0.13;0.13;;;;;;;;;;5060970;28;20079;-72
2023/09/13 03:28:44;;;;;;;3.23;1.90;;;;;;;;;;5060588;28;20719;-73
2023/09/13 03:31:13;;;;;;;1.10;1.02;;;;;;;;;;5056500;28;20348;-73
2023/09/13 03:33:42;;;;;;;4.70;3.63;;;;;;;;;;5050013;28;20045;-73
2023/09/13 03:36:12;;;;;;;2.38;2.17;;;;;;;;;;5063045;28;20044;-73
2023/09/13 03:38:41;;;;;;;0.00;0.00;;;;;;;;;;5057924;28;20098;-73
2023/09/13 03:41:11;;;;;;;2.10;1.90;;;;;;;;;;5059787;28;20140;-73
2023/09/13 03:43:39;;;;;;;0.03;0.03;;;;;;;;;;5060405;28;20072;-73
2023/09/13 03:46:07;;;;;;;1.42;1.33;;;;;;;;;;5056671;28;20085;-73
2023/09/13 03:48:37;;;;;;;1.35;1.25;;;;;;;;;;5063790;28;20052;-71
2023/09/13 03:51:04;;;;;;;2.00;1.77;;;;;;;;;;5064223;28;20052;-72
2023/09/13 03:53:32;;;;;;;1.27;1.17;;;;;;;;;;5058474;28;20052;-72
2023/09/13 03:56:00;;;;;;;1.48;1.45;;;;;;;;;;5061829;28;20123;-72
2023/09/13 03:58:31;;;;;;;0.40;0.40;;;;;;;;;;5059444;28;20057;-70
2023/09/13 04:00:59;;;;;;;3.33;3.17;;;;;;;;;;5056381;28;20048;-72
2023/09/13 04:03:26;;;;;;;0.13;0.13;;;;;;;;;;5055738;28;20057;-71
2023/09/13 04:05:54;;;;;;;0.13;0.13;;;;;;;;;;5062903;28;20051;-72
2023/09/13 04:08:22;;;;;;;0.00;0.00;;;;;;;;;;5062602;28;20048;-71
2023/09/13 04:10:49;;;;;;;4.72;4.00;;;;;;;;;;5053643;28;20048;-72
2023/09/13 04:13:18;;;;;;;4.68;4.28;;;;;;;;;;5061881;28;20044;-72
2023/09/13 04:15:46;;;;;;;0.17;0.17;;;;;;;;;;5048095;28;20067;-71
2023/09/13 04:18:14;;;;;;;0.47;0.47;;;;;;;;;;5051044;28;20056;-73
2023/09/13 04:20:46;;;;;;;1.35;1.25;;;;;;;;;;5060638;28;20561;-74
2023/09/13 04:23:14;;;;;;;10.80;10.05;;;;;;;;;;5061935;28;20071;-72
2023/09/13 04:25:43;;;;;;;1.20;1.20;;;;;;;;;;5052968;28;20049;-72
2023/09/13 04:28:12;;;;;;;3.40;2.47;;;;;;;;;;5055349;28;20397;-72
2023/09/13 04:30:41;;;;;;;0.10;0.10;;;;;;;;;;5051196;28;20040;-72
2023/09/13 04:33:09;;;;;;;0.13;0.10;;;;;;;;;;5062599;28;20052;-72
2023/09/13 04:35:37;;;;;;;1.65;1.20;;;;;;;;;;5055687;28;20059;-72
2023/09/13 04:38:05;;;;;;;0.55;0.55;;;;;;;;;;5062001;28;20080;-72
2023/09/13 04:40:32;;;;;;;2.05;0.30;;;;;;;;;;5058686;28;20252;-72
2023/09/13 04:43:06;;;;;;;2.08;1.63;;;;;;;;;;5059271;28;20057;-72
2023/09/13 04:45:36;;;;;;;1.05;1.05;;;;;;;;;;5052519;28;20048;-72
2023/09/13 04:48:04;;;;;;;1.95;0.82;;;;;;;;;;5038510;28;20106;-72
2023/09/13 04:50:31;;;;;;;4.72;4.38;;;;;;;;;;5044127;28;20044;-71
2023/09/13 04:52:59;;;;;;;3.72;3.53;;;;;;;;;;5058042;28;20117;-72
2023/09/13 04:55:27;;;;;;;0.93;0.90;;;;;;;;;;5052899;28;20037;-72
2023/09/13 04:57:55;;;;;;;0.10;0.10;;;;;;;;;;5055550;28;20068;-72
2023/09/13 05:00:26;;;;;;;0.40;0.40;;;;;;;;;;5058064;28;20044;-72
2023/09/13 05:02:54;;;;;;;1.90;1.80;;;;;;;;;;5063356;28;20413;-72
2023/09/13 05:05:22;;;;;;;0.65;0.52;;;;;;;;;;5062797;28;20079;-72
2023/09/13 05:07:49;;;;;;;1.20;0.63;;;;;;;;;;5061085;28;20045;-71
2023/09/13 05:10:17;;;;;;;2.50;2.05;;;;;;;;;;5051878;28;20045;-72
2023/09/13 05:12:44;;;;;;;3.25;3.05;;;;;;;;;;5062946;28;20049;-72
2023/09/13 05:15:13;;;;;;;0.20;0.20;;;;;;;;;;5059008;28;20044;-72
2023/09/13 05:17:41;;;;;;;4.80;4.50;;;;;;;;;;5064921;28;20113;-72
2023/09/13 05:20:08;;;;;;;0.63;0.63;;;;;;;;;;5061286;28;20056;-73
2023/09/13 05:22:36;;;;;;;12.65;11.73;;;;;;;;;;5061120;28;20044;-72
2023/09/13 05:25:04;;;;;;;1.02;1.02;;;;;;;;;;5062197;28;20076;-71
2023/09/13 05:27:32;;;;;;;18.42;17.38;;;;;;;;;;5058729;28;20053;-71
2023/09/13 05:29:59;;;;;;;7.20;6.63;;;;;;;;;;5057006;28;20044;-71
2023/09/13 05:32:27;;;;;;;0.20;0.20;;;;;;;;;;5062030;28;20072;-70
2023/09/13 05:34:54;;;;;;;19.65;18.52;;;;;;;;;;5048484;28;20159;-70
2023/09/13 05:37:22;;;;;;;0.47;0.47;;;;;;;;;;5059984;28;20049;-72
2023/09/13 05:39:51;;;;;;;1.48;0.80;;;;;;;;;;5056296;28;20056;-71
2023/09/13 05:42:19;;;;;;;0.47;0.47;;;;;;;;;;5057336;28;20064;-71
2023/09/13 05:44:46;;;;;;;19.73;18.33;;;;;;;;;;5054428;28;20122;-70
2023/09/13 05:47:14;;;;;;;0.88;0.88;;;;;;;;;;5063593;28;20044;-71
2023/09/13 05:49:41;;;;;;;0.20;0.20;;;;;;;;;;5058950;28;20077;-71
2023/09/13 05:52:09;;;;;;;0.43;0.17;;;;;;;;;;5062216;28;20527;-72
2023/09/13 05:54:36;;;;;;;0.73;0.73;;;;;;;;;;5049993;28;20048;-71
2023/09/13 05:57:04;;;;;;;0.45;0.45;;;;;;;;;;5053445;28;20494;-71
2023/09/13 05:59:35;;;;;;;0.10;0.10;;;;;;;;;;5062486;28;20736;-70
2023/09/13 06:02:02;;;;;;;3.15;3.03;;;;;;;;;;5057587;28;20045;-72
2023/09/13 06:04:36;;;;;;;0.80;0.73;;;;;;;;;;5057727;28;21844;-72
2023/09/13 06:07:04;;;;;;;0.32;0.25;;;;;;;;;;5056743;28;20387;-71
2023/09/13 06:09:32;;;;;;;0.70;0.68;;;;;;;;;;5064300;28;20748;-72
2023/09/13 06:12:01;;;;;;;28.70;26.40;;;;;;;;;;5057765;28;20051;-72
2023/09/13 06:14:30;;;;;;;0.22;0.22;;;;;;;;;;5060459;28;20077;-72
2023/09/13 06:16:58;;;;;;;0.00;0.00;;;;;;;;;;5063607;28;20459;-72
2023/09/13 06:19:25;;;;;;;0.52;0.52;;;;;;;;;;5056136;28;20052;-72
2023/09/13 06:21:55;;;;;;;0.70;0.70;;;;;;;;;;5064749;28;20463;-71
2023/09/13 06:24:24;;;;;;;0.13;0.13;;;;;;;;;;5054969;28;20135;-70
2023/09/13 06:26:52;;;;;;;0.82;0.82;;;;;;;;;;5056688;28;20458;-71
2023/09/13 06:29:20;;;;;;;0.30;0.30;;;;;;;;;;5058946;28;20125;-72
2023/09/13 06:31:48;;;;;;;0.10;0.10;;;;;;;;;;5057837;28;20094;-71
2023/09/13 06:34:32;;;;;;;6.22;5.80;;;;;;;;;;5057395;28;20072;-72
2023/09/13 06:36:59;;;;;;;0.60;0.60;;;;;;;;;;5050855;28;20049;-71
2023/09/13 06:39:28;;;;;;;1.52;1.52;;;;;;;;;;5054046;28;20530;-72
2023/09/13 06:41:56;;;;;;;12.57;11.68;;;;;;;;;;5056496;28;20106;-71
2023/09/13 06:44:24;;;;;;;0.08;0.08;;;;;;;;;;5062827;28;20051;-72
2023/09/13 06:46:54;;;;;;;0.17;0.17;;;;;;;;;;5053779;28;20100;-70
2023/09/13 06:49:30;;;;;;;0.25;0.25;;;;;;;;;;5059980;28;20498;-73
2023/09/13 06:51:58;;;;;;;0.25;0.25;;;;;;;;;;5057632;28;20041;-68
2023/09/13 06:54:27;;;;;;;8.13;7.53;;;;;;;;;;5061543;28;20041;-72
2023/09/13 06:56:55;;;;;;;0.50;0.50;;;;;;;;;;5049786;28;20048;-70
2023/09/13 06:59:26;;;;;;;0.05;0.05;;;;;;;;;;5061871;28;20047;-72
2023/09/13 07:01:57;;;;;;;25.33;23.10;;;;;;;;;;5058587;28;20060;-75
2023/09/13 07:04:44;;;;;;;0.25;0.20;;;;;;;;;;5062823;28;20036;-71
2023/09/13 07:07:32;;;;;;;0.85;0.85;;;;;;;;;;5057482;28;20144;-72
2023/09/13 07:09:59;;;;;;;0.10;0.10;;;;;;;;;;5068136;28;20406;-71
2023/09/13 07:12:26;;;;;;;0.45;0.45;;;;;;;;;;5064397;28;20127;-72
2023/09/13 07:14:55;;;;;;;2.55;2.35;;;;;;;;;;5065353;28;20052;-72
2023/09/13 07:17:22;;;;;;;0.93;0.90;;;;;;;;;;5064332;28;20048;-72
2023/09/13 07:19:50;;;;;;;0.17;0.17;;;;;;;;;;5063294;28;20061;-73
2023/09/13 07:22:17;;;;;;;2.10;1.75;;;;;;;;;;5062662;28;20506;-73
2023/09/13 07:24:45;;;;;;;1.42;1.33;;;;;;;;;;5063548;28;20060;-73
2023/09/13 07:27:12;;;;;;;0.70;0.70;;;;;;;;;;5056431;28;20056;-73
2023/09/13 07:29:40;;;;;;;0.40;0.40;;;;;;;;;;5059849;28;20055;-72
2023/09/13 07:32:08;;;;;;;0.30;0.30;;;;;;;;;;5055431;28;20052;-72
2023/09/13 07:34:36;;;;;;;0.35;0.35;;;;;;;;;;5050518;28;20501;-72
2023/09/13 07:37:04;;;;;;;0.25;0.25;;;;;;;;;;5059321;28;20134;-73
2023/09/13 07:39:31;;;;;;;0.00;0.00;;;;;;;;;;5065930;28;20049;-73
2023/09/13 07:41:58;;;;;;;0.77;0.75;;;;;;;;;;5054524;28;20481;-73
2023/09/13 07:44:26;;;;;;;0.00;0.00;;;;;;;;;;5056631;28;20105;-72
2023/09/13 07:46:53;;;;;;;0.30;0.30;;;;;;;;;;5064077;28;20049;-73
2023/09/13 07:49:21;;;;;;;0.00;0.00;;;;;;;;;;5055081;28;20484;-73
2023/09/13 07:51:49;;;;;;;1.73;1.65;;;;;;;;;;5054059;28;20060;-73
2023/09/13 07:54:16;;;;;;;0.10;0.08;;;;;;;;;;5054853;28;20513;-73
2023/09/13 07:56:46;;;;;;;0.00;0.00;;;;;;;;;;5059086;28;20048;-73
2023/09/13 07:59:15;;;;;;;0.10;0.10;;;;;;;;;;5067320;28;20056;-73
2023/09/13 08:01:42;;;;;;;0.00;0.00;;;;;;;;;;5064028;28;20452;-74
2023/09/13 08:04:10;;;;;;;0.00;0.00;;;;;;;;;;5056081;28;20118;-71
2023/09/13 08:06:41;;;;;;;14.45;13.57;;;;;;;;;;5064861;28;20053;-70
2023/09/13 08:09:09;;;;;;;21.58;19.92;;;;;;;;;;5062776;28;20052;-72
2023/09/13 08:11:37;;;;;;;1.45;1.10;;;;;;;;;;5062493;28;20053;-70
2023/09/13 08:14:04;;;;;;;0.40;0.40;;;;;;;;;;5057704;28;20098;-70
2023/09/13 08:16:31;;;;;;;0.20;0.20;;;;;;;;;;5058926;28;20545;-71
2023/09/13 08:18:59;;;;;;;0.00;0.00;;;;;;;;;;5059801;28;20049;-71
2023/09/13 08:21:26;;;;;;;1.63;1.60;;;;;;;;;;5058861;28;20067;-71
2023/09/13 08:23:54;;;;;;;0.00;0.00;;;;;;;;;;5056894;28;20395;-71
2023/09/13 08:26:21;;;;;;;0.05;0.05;;;;;;;;;;5064152;28;20062;-71
2023/09/13 08:28:54;;;;;;;0.00;0.00;;;;;;;;;;5052378;28;20049;-70
2023/09/13 08:31:23;;;;;;;0.00;0.00;;;;;;;;;;5065079;28;20119;-73
2023/09/13 08:33:52;;;;;;;0.00;0.00;;;;;;;;;;5058015;28;20071;-74
2023/09/13 08:36:19;;;;;;;3.22;2.92;;;;;;;;;;5058365;28;20410;-73
2023/09/13 08:38:47;;;;;;;0.00;0.00;;;;;;;;;;5060616;28;20151;-73
2023/09/13 08:41:17;;;;;;;0.10;0.10;;;;;;;;;;5052140;28;20114;-72
2023/09/13 08:43:45;;;;;;;0.17;0.17;;;;;;;;;;5051656;28;20049;-73
2023/09/13 08:46:13;;;;;;;0.10;0.10;;;;;;;;;;5057447;28;20042;-73
2023/09/13 08:48:42;;;;;;;0.00;0.00;;;;;;;;;;5062979;28;20102;-73
2023/09/13 08:51:11;;;;;;;0.00;0.00;;;;;;;;;;5056593;28;20098;-72
2023/09/13 08:53:40;;;;;;;0.10;0.10;;;;;;;;;;5057624;28;20445;-72
2023/09/13 08:56:09;;;;;;;0.00;0.00;;;;;;;;;;5061130;28;20048;-73
2023/09/13 08:58:37;;;;;;;4.13;3.92;;;;;;;;;;5048963;28;20068;-73
2023/09/13 09:01:07;;;;;;;8.80;8.00;;;;;;;;;;5053975;28;20060;-74
2023/09/13 09:03:34;;;;;;;0.88;0.88;;;;;;;;;;5055350;28;20045;-73
2023/09/13 09:06:04;;;;;;;3.15;1.05;;;;;;;;;;5061795;28;20052;-72
2023/09/13 09:08:31;;;;;;;0.38;0.38;;;;;;;;;;5056937;28;20045;-73
2023/09/13 09:10:59;;;;;;;0.00;0.00;;;;;;;;;;5060608;28;20110;-73
2023/09/13 09:13:29;;;;;;;0.38;0.38;;;;;;;;;;5059706;28;20490;-73
2023/09/13 09:15:59;;;;;;;0.00;0.00;;;;;;;;;;5054697;28;20094;-73
2023/09/13 09:18:28;;;;;;;0.20;0.20;;;;;;;;;;5061645;28;20503;-73
2023/09/13 09:20:58;;;;;;;0.00;0.00;;;;;;;;;;5055468;28;20106;-73
2023/09/13 09:23:26;;;;;;;0.00;0.00;;;;;;;;;;5061503;28;20044;-72
2023/09/13 09:25:54;;;;;;;0.10;0.10;;;;;;;;;;5055974;28;20056;-73
2023/09/13 09:28:23;;;;;;;0.00;0.00;;;;;;;;;;5059348;28;20071;-73
2023/09/13 09:30:52;;;;;;;0.10;0.10;;;;;;;;;;5045592;28;20056;-73
2023/09/13 09:33:32;;;;;;;0.75;0.30;;;;;;;;;;5055436;28;20482;-74
2023/09/13 09:36:01;;;;;;;0.35;0.35;;;;;;;;;;5057477;28;20068;-73
2023/09/13 09:38:29;;;;;;;0.00;0.00;;;;;;;;;;5056329;28;20048;-73
2023/09/13 09:40:58;;;;;;;0.00;0.00;;;;;;;;;;5044542;28;20052;-72
2023/09/13 09:43:26;;;;;;;0.10;0.10;;;;;;;;;;5051215;28;20041;-71
2023/09/13 09:45:53;;;;;;;0.20;0.10;;;;;;;;;;5064059;28;20405;-73
2023/09/13 09:48:21;;;;;;;0.00;0.00;;;;;;;;;;5048283;28;20053;-71
2023/09/13 09:50:50;;;;;;;0.22;0.20;;;;;;;;;;5057217;28;20379;-72
2023/09/13 09:53:18;;;;;;;19.77;5.10;;;;;;;;;;5042869;28;20045;-72
2023/09/13 09:55:45;;;;;;;0.00;0.00;;;;;;;;;;5045141;28;20533;-73
2023/09/13 09:58:13;;;;;;;0.00;0.00;;;;;;;;;;5059370;28;20128;-72
2023/09/13 10:00:48;;;;;;;0.00;0.00;;;;;;;;;;5054812;28;20072;-73
2023/09/13 10:03:18;;;;;;;0.00;0.00;;;;;;;;;;5061411;28;20062;-72
2023/09/13 10:05:46;;;;;;;;;;;;;;;;;;5054339;28;20049;-73
2023/09/13 10:08:14;;;;;;;0.00;0.00;;;;;;;;;;5056679;28;19921;-72
2023/09/13 10:10:41;;;;;;;0.00;0.00;;;;;;;;;;5060893;28;20568;-73
2023/09/13 10:13:13;;;;;;;0.10;0.10;;;;;;;;;;5055975;28;20037;-73
2023/09/13 10:15:40;;;;;;;0.00;0.00;;;;;;;;;;5061971;28;20450;-73
2023/09/13 10:18:12;;;;;;;0.20;0.20;;;;;;;;;;5063169;28;20052;-72
2023/09/13 10:20:42;;;;;;;0.28;0.25;;;;;;;;;;5062818;28;20532;-72
2023/09/13 10:23:12;;;;;;;0.00;0.00;;;;;;;;;;5056194;28;20060;-72
2023/09/13 10:25:42;;;;;;;0.45;0.45;;;;;;;;;;5054812;28;20051;-73
2023/09/13 10:28:12;;;;;;;0.52;0.52;;;;;;;;;;5069463;28;20048;-73
2023/09/13 10:30:41;;;;;;;0.00;0.00;;;;;;;;;;5057923;28;20048;-72
2023/09/13 10:33:09;;;;;;;0.63;0.63;;;;;;;;;;5053157;28;20049;-72
2023/09/13 10:35:42;;;;;;;0.08;0.08;;;;;;;;;;5056541;28;20049;-72
2023/09/13 10:38:29;;;;;;;0.00;0.00;;;;;;;;;;5059427;28;20805;-73
2023/09/13 10:41:02;;;;;;;3.20;3.05;;;;;;;;;;5060546;28;20135;-72
2023/09/13 10:43:31;;;;;;;0.43;0.43;;;;;;;;;;5065153;28;20527;-72
2023/09/13 10:46:01;;;;;;;0.00;0.00;;;;;;;;;;5054030;28;20149;-72
2023/09/13 10:48:29;;;;;;;0.00;0.00;;;;;;;;;;5060927;28;20070;-74
2023/09/13 10:50:57;;;;;;;0.17;0.17;;;;;;;;;;5068530;28;20120;-73
2023/09/13 10:53:26;;;;;;;0.00;0.00;;;;;;;;;;5052527;28;20053;-73
2023/09/13 10:55:54;;;;;;;0.73;0.73;;;;;;;;;;5062999;28;20049;-72
2023/09/13 10:58:23;;;;;;;6.78;6.40;;;;;;;;;;5060214;28;20551;-73
2023/09/13 11:00:53;;;;;;;0.20;0.08;;;;;;;;;;5067887;28;20429;-72
2023/09/13 11:03:20;;;;;;;0.55;0.30;;;;;;;;;;5064639;28;20064;-73
2023/09/13 11:05:50;;;;;;;0.03;0.03;;;;;;;;;;5063944;28;20422;-73
2023/09/13 11:08:33;;;;;;;0.00;0.00;;;;;;;;;;5058344;28;20048;-74
2023/09/13 11:11:27;;;;;;;0.00;0.00;;;;;;;;;;5062081;28;20396;-74
2023/09/13 11:14:08;;;;;;;1.42;1.35;;;;;;;;;;5062001;28;20053;-73
2023/09/13 11:16:36;;;;;;;0.10;0.10;;;;;;;;;;5055968;28;20040;-74
2023/09/13 11:19:05;;;;;;;0.00;0.00;;;;;;;;;;5066124;28;20048;-74
2023/09/13 11:21:47;;;;;;;0.10;0.10;;;;;;;;;;5058545;28;20040;-73
2023/09/13 11:24:15;;;;;;;0.00;0.00;;;;;;;;;;5059350;28;20119;-73
2023/09/13 11:27:08;;;;;;;0.00;0.00;;;;;;;;;;5063749;28;20056;-73
2023/09/13 11:29:40;;;;;;;0.00;0.00;;;;;;;;;;5062634;28;20140;-74
2023/09/13 11:32:09;;;;;;;2.28;2.17;;;;;;;;;;5060919;28;20408;-73
2023/09/13 11:34:37;;;;;;;0.00;0.00;;;;;;;;;;5052802;28;20032;-73
2023/09/13 11:37:05;;;;;;;0.00;0.00;;;;;;;;;;5061819;28;20075;-70
2023/09/13 11:39:33;;;;;;;0.00;0.00;;;;;;;;;;5047138;28;20071;-70
2023/09/13 11:42:01;;;;;;;0.47;0.47;;;;;;;;;;5052465;28;20450;-71
2023/09/13 11:44:29;;;;;;;7.28;6.88;;;;;;;;;;5063501;28;20118;-71
2023/09/13 11:47:01;;;;;;;20.52;18.45;;;;;;;;;;5066926;28;20045;-72
2023/09/13 11:49:29;;;;;;;0.00;0.00;;;;;;;;;;5064568;28;20454;-71
2023/09/13 11:52:00;;;;;;;23.10;21.52;;;;;;;;;;5060384;28;20045;-69
2023/09/13 11:54:52;;;;;;;78.72;73.68;;;;;;;;;;5046258;28;20049;-71
2023/09/13 11:57:51;;;;;;;0.20;0.20;;;;;;;;;;5059645;28;20056;-72
2023/09/13 12:00:23;;;;;;;0.00;0.00;;;;;;;;;;5067733;28;20045;-72
2023/09/13 12:02:54;;;;;;;0.28;0.28;;;;;;;;;;5065682;28;20238;-73
2023/09/13 12:05:27;;;;;;;0.35;0.35;;;;;;;;;;5064271;28;20465;-73
2023/09/13 12:08:25;;;;;;;0.60;0.57;;;;;;;;;;5057745;28;20049;-72
2023/09/13 12:11:09;;;;;;;0.10;0.10;;;;;;;;;;5047390;28;20518;-71
2023/09/13 12:13:49;;;;;;;13.85;12.90;;;;;;;;;;5063637;28;20053;-71
2023/09/13 12:16:19;;;;;;;1.58;1.48;;;;;;;;;;5061753;28;20044;-73
2023/09/13 12:18:47;;;;;;;0.68;0.68;;;;;;;;;;5083741;28;20036;-72
2023/09/13 12:21:14;;;;;;;0.00;0.00;;;;;;;;;;5067512;28;20159;-73
2023/09/13 12:23:43;;;;;;;2.45;2.30;;;;;;;;;;5052405;28;20051;-73
2023/09/13 12:26:12;;;;;;;0.55;0.52;;;;;;;;;;5056539;28;20049;-73
2023/09/13 12:28:40;;;;;;;0.00;0.00;;;;;;;;;;5064780;28;20506;-73
2023/09/13 12:31:09;;;;;;;1.52;1.42;;;;;;;;;;5056902;28;20525;-71
2023/09/13 12:33:38;;;;;;;0.95;0.70;;;;;;;;;;5059098;28;20407;-72
2023/09/13 12:36:06;;;;;;;0.77;0.77;;;;;;;;;;5049445;28;20060;-72
2023/09/13 12:38:44;;;;;;;0.10;0.10;;;;;;;;;;5064836;28;20410;-73
2023/09/13 12:41:16;;;;;;;0.20;0.20;;;;;;;;;;5059626;28;20221;-71
2023/09/13 12:43:45;;;;;;;0.08;0.08;;;;;;;;;;5062104;28;20071;-73
2023/09/13 12:46:14;;;;;;;0.10;0.10;;;;;;;;;;5054697;28;20127;-73
2023/09/13 12:48:42;;;;;;;0.43;0.20;;;;;;;;;;5058601;28;20178;-72
2023/09/13 12:51:11;;;;;;;3.28;0.88;;;;;;;;;;5048148;28;20343;-72
2023/09/13 12:53:39;;;;;;;0.10;0.10;;;;;;;;;;5049963;28;20422;-73
2023/09/13 12:56:10;;;;;;;0.20;0.20;;;;;;;;;;5056668;28;20094;-73
2023/09/13 12:58:53;;;;;;;0.00;0.00;;;;;;;;;;5064707;28;20047;-73
2023/09/13 13:01:22;;;;;;;0.47;0.43;;;;;;;;;;5048376;28;20456;-72
2023/09/13 13:03:58;;;;;;;0.00;0.00;;;;;;;;;;5058407;28;20424;-73
2023/09/13 13:06:27;;;;;;;0.60;0.60;;;;;;;;;;5064135;28;20139;-73
2023/09/13 13:09:04;;;;;;;0.20;0.20;;;;;;;;;;5052007;28;20124;-72
2023/09/13 13:11:40;;;;;;;0.00;0.00;;;;;;;;;;5062551;28;20051;-72
2023/09/13 13:14:12;;;;;;;1.55;1.48;;;;;;;;;;5058151;28;20823;-71
2023/09/13 13:16:42;;;;;;;0.00;0.00;;;;;;;;;;5049278;28;20553;-72
2023/09/13 13:19:13;;;;;;;1.20;1.20;;;;;;;;;;5051999;28;20222;-72
2023/09/13 13:21:51;;;;;;;0.40;0.40;;;;;;;;;;5058258;28;20155;-70
2023/09/13 13:24:36;;;;;;;0.00;0.00;;;;;;;;;;5053307;28;20334;-72
2023/09/13 13:27:04;;;;;;;0.00;0.00;;;;;;;;;;5062596;28;20110;-73
2023/09/13 13:29:34;;;;;;;0.00;0.00;;;;;;;;;;5050546;28;20040;-72
2023/09/13 13:32:02;;;;;;;0.00;0.00;;;;;;;;;;5058484;28;20048;-73
2023/09/13 13:34:30;;;;;;;0.17;0.10;;;;;;;;;;5047751;28;20140;-72
2023/09/13 13:36:58;;;;;;;0.00;0.00;;;;;;;;;;5065578;28;20106;-72
2023/09/13 13:39:25;;;;;;;0.10;0.10;;;;;;;;;;5060245;28;20391;-72
2023/09/13 13:41:53;;;;;;;3.50;0.20;;;;;;;;;;5059520;28;20757;-70
2023/09/13 13:44:20;;;;;;;0.00;0.00;;;;;;;;;;5070446;28;20143;-72
2023/09/13 13:46:48;;;;;;;12.60;11.85;;;;;;;;;;5061338;28;20441;-72
2023/09/13 13:49:17;;;;;;;1.27;1.27;;;;;;;;;;5068932;28;20045;-72
2023/09/13 13:51:49;;;;;;;1.33;0.68;;;;;;;;;;5069633;28;20514;-73
2023/09/13 13:54:18;;;;;;;0.00;0.00;;;;;;;;;;5060986;28;20548;-73
2023/09/13 13:56:46;;;;;;;0.00;0.00;;;;;;;;;;5058359;28;20048;-72
2023/09/13 13:59:14;;;;;;;0.00;0.00;;;;;;;;;;5057836;28;20057;-72
2023/09/13 14:01:42;;;;;;;0.00;0.00;;;;;;;;;;5063442;28;20044;-73
2023/09/13 14:04:10;;;;;;;0.13;0.13;;;;;;;;;;5055037;28;20067;-73
2023/09/13 14:06:44;;;;;;;0.00;0.00;;;;;;;;;;5054108;28;20052;-70
2023/09/13 14:09:17;;;;;;;0.00;0.00;;;;;;;;;;5062209;28;20584;-71
2023/09/13 14:11:45;;;;;;;4.70;4.43;;;;;;;;;;5062903;28;20049;-71
2023/09/13 14:14:15;;;;;;;0.10;0.10;;;;;;;;;;5054486;28;20055;-70
2023/09/13 14:16:43;;;;;;;0.00;0.00;;;;;;;;;;5059840;28;20056;-71
2023/09/13 14:19:11;;;;;;;0.00;0.00;;;;;;;;;;5057143;28;20521;-72
2023/09/13 14:21:39;;;;;;;0.10;0.10;;;;;;;;;;5066742;28;20186;-72
2023/09/13 14:24:07;;;;;;;0.00;0.00;;;;;;;;;;5056593;28;20067;-72
2023/09/13 14:26:35;;;;;;;0.20;0.20;;;;;;;;;;5054996;22;20063;-74
2023/09/13 14:29:02;;;;;;;0.32;0.30;;;;;;;;;;5032346;28;20069;-73
2023/09/13 14:31:36;;;;;;;0.00;0.00;;;;;;;;;;5026096;28;20049;-73
2023/09/13 14:34:05;;;;;;;0.00;0.00;;;;;;;;;;5020885;28;20049;-73
2023/09/13 14:36:33;;;;;;;0.05;0.05;;;;;;;;;;5017154;28;20522;-72
2023/09/13 14:39:01;;;;;;;0.08;0.08;;;;;;;;;;5017557;28;20886;-73
2023/09/13 14:41:29;;;;;;;0.03;0.03;;;;;;;;;;5020136;28;20045;-73
2023/09/13 14:43:56;;;;;;;0.00;0.00;;;;;;;;;;5018324;28;20123;-72
2023/09/13 14:46:23;;;;;;;0.00;0.00;;;;;;;;;;5016501;28;20041;-73
2023/09/13 14:48:52;;;;;;;0.20;0.20;;;;;;;;;;5019985;28;20042;-73
2023/09/13 14:51:20;;;;;;;0.22;0.00;;;;;;;;;;5020923;28;20049;-72
2023/09/13 14:53:48;;;;;;;0.10;0.10;;;;;;;;;;5017137;28;20136;-70
2023/09/13 14:56:15;;;;;;;0.17;0.17;;;;;;;;;;5021492;28;20045;-73